Language: 


Des rapports , des résumés tant et plus, au choix de chacun....


Données statistiques de la station
Quotidien Rapport Aout 13, 2017 Unités:  Métrique    Anglais   les deux
« Précédent Jour
Suivant Jour »
Quotidien Hebdomadaire Mensuel Annuel Actuel
  Haut: Bas: Moyen:
Température: 25.2 °C 0.0 °C 17.1 °C
Pt de rosée: 20.0 °C 11.0 °C 13.5 °C
Humidité: 98 % 0 % 80 %
Vitesse du vent: 14.0 km/h 0.0 km/h 2.8 km/h
Rafales: 14.8 km/h - -
Vent:- - WSW
Pression: 1021.9 hPa 1018.2 hPa -
Précipitation: 0.0 mm    
Historical Graphs
 
 
Données statistiques pour Aout 13, 2017
Heure Température Point de rosée Pression Vent Vitesse du vent Refales Humidité Pluie (taux horaire)
00:00 14.5 °C 13.0 °C 1018.2 hPa Calm   6.1 km/h 91 % 0.0 mm
00:05 14.4 °C 13.0 °C 1018.2 hPa Calm     92 % 0.0 mm
00:10 14.2 °C 13.0 °C 1018.2 hPa Calm   6.4 km/h 93 % 0.0 mm
00:15 14.3 °C 13.0 °C 1018.2 hPa SW 6.4 km/h 9.7 km/h 93 % 0.0 mm
00:20 14.3 °C 13.0 °C 1018.2 hPa West 7.9 km/h 9.7 km/h 94 % 0.0 mm
00:25 14.3 °C 13.0 °C 1018.2 hPa Calm   10.5 km/h 94 % 0.0 mm
00:30 14.2 °C 13.0 °C 1018.2 hPa WSW 7.2 km/h 10.5 km/h 94 % 0.0 mm
00:35 14.2 °C 13.0 °C 1018.2 hPa WSW 4.0 km/h 8.7 km/h 94 % 0.0 mm
00:40 14.1 °C 13.0 °C 1018.2 hPa Calm   7.9 km/h 95 % 0.0 mm
00:45 14.1 °C 13.0 °C 1018.2 hPa West 5.8 km/h 8.7 km/h 95 % 0.0 mm
00:50 14.1 °C 13.0 °C 1018.2 hPa West 6.4 km/h 8.7 km/h 95 % 0.0 mm
00:55 14.0 °C 13.0 °C 1018.2 hPa Calm   8.7 km/h 95 % 0.0 mm
00:56 14.0 °C 13.0 °C 1018.2 hPa West 5.5 km/h 8.7 km/h 95 % 0.0 mm
01:01 13.9 °C 13.0 °C 1018.2 hPa Calm   6.9 km/h 95 % 0.0 mm
01:06 13.8 °C 13.0 °C 1018.2 hPa West 2.6 km/h 6.9 km/h 95 % 0.0 mm
01:11 13.7 °C 13.0 °C 1018.2 hPa Calm   7.6 km/h 96 % 0.0 mm
01:16 13.6 °C 13.0 °C 1018.2 hPa Calm   7.6 km/h 95 % 0.0 mm
01:21 13.4 °C 13.0 °C 1018.2 hPa Calm   6.1 km/h 95 % 0.0 mm
01:26 13.3 °C 13.0 °C 1018.2 hPa Calm     95 % 0.0 mm
01:31 13.3 °C 13.0 °C 1018.2 hPa Calm   5.8 km/h 96 % 0.0 mm
01:36 13.4 °C 13.0 °C 1018.2 hPa Calm   6.9 km/h 96 % 0.0 mm
01:41 13.4 °C 13.0 °C 1018.2 hPa West 6.1 km/h 7.9 km/h 97 % 0.0 mm
01:46 13.4 °C 13.0 °C 1018.2 hPa Calm   7.9 km/h 96 % 0.0 mm
01:51 13.4 °C 13.0 °C 1018.2 hPa Calm   5.5 km/h 96 % 0.0 mm
01:56 13.0 °C 13.0 °C 1018.2 hPa Calm     96 % 0.0 mm
02:01 12.8 °C 13.0 °C 1018.2 hPa Calm     96 % 0.0 mm
02:06 12.7 °C 13.0 °C 1018.2 hPa Calm     96 % 0.0 mm
02:11 12.7 °C 13.0 °C 1018.2 hPa Calm     96 % 0.0 mm
02:16 12.5 °C 13.0 °C 1018.2 hPa Calm     97 % 0.0 mm
02:21 12.5 °C 13.0 °C 1018.2 hPa Calm     97 % 0.0 mm
02:26 12.4 °C 12.0 °C 1018.2 hPa Calm     97 % 0.0 mm
02:31 12.4 °C 12.0 °C 1018.2 hPa Calm     97 % 0.0 mm
02:36 12.3 °C 12.0 °C 1018.2 hPa Calm     97 % 0.0 mm
02:41 12.3 °C 12.0 °C 1018.2 hPa Calm     97 % 0.0 mm
02:46 12.2 °C 12.0 °C 1018.2 hPa Calm     97 % 0.0 mm
02:51 12.2 °C 12.0 °C 1018.2 hPa Calm     97 % 0.0 mm
02:56 12.1 °C 12.0 °C 1018.2 hPa Calm     97 % 0.0 mm
03:02 0.0 °C 12.0 °C 1018.2 hPa Calm     0 % 0.0 mm
03:07 12.1 °C 12.0 °C 1018.2 hPa Calm     97 % 0.0 mm
03:12 12.1 °C 12.0 °C 1018.2 hPa Calm     97 % 0.0 mm
03:17 12.1 °C 12.0 °C 1018.2 hPa Calm     98 % 0.0 mm
03:22 12.1 °C 12.0 °C 1018.2 hPa Calm     98 % 0.0 mm
03:27 12.1 °C 12.0 °C 1018.2 hPa Calm     98 % 0.0 mm
03:32 12.0 °C 12.0 °C 1018.2 hPa Calm     97 % 0.0 mm
03:37 11.9 °C 12.0 °C 1018.2 hPa Calm     98 % 0.0 mm
03:42 11.9 °C 12.0 °C 1018.2 hPa Calm     98 % 0.0 mm
03:47 11.8 °C 12.0 °C 1018.2 hPa Calm     98 % 0.0 mm
03:52 11.7 °C 12.0 °C 1018.2 hPa Calm     98 % 0.0 mm
03:57 11.5 °C 12.0 °C 1018.2 hPa Calm     98 % 0.0 mm
04:02 11.5 °C 12.0 °C 1018.2 hPa Calm     98 % 0.0 mm
04:07 11.5 °C 12.0 °C 1018.2 hPa Calm     98 % 0.0 mm
04:12 11.5 °C 12.0 °C 1018.2 hPa Calm     98 % 0.0 mm
04:17 11.4 °C 11.0 °C 1018.2 hPa Calm     98 % 0.0 mm
04:22 11.4 °C 11.0 °C 1018.2 hPa Calm     98 % 0.0 mm
04:27 11.3 °C 11.0 °C 1018.2 hPa Calm     98 % 0.0 mm
04:32 11.2 °C 11.0 °C 1018.2 hPa Calm     98 % 0.0 mm
04:37 11.0 °C 11.0 °C 1018.2 hPa Calm     98 % 0.0 mm
04:42 10.9 °C 11.0 °C 1018.2 hPa Calm     98 % 0.0 mm
04:48 11.0 °C 11.0 °C 1018.2 hPa Calm     98 % 0.0 mm
04:53 11.1 °C 11.0 °C 1018.2 hPa Calm     98 % 0.0 mm
04:58 11.2 °C 11.0 °C 1018.2 hPa Calm     98 % 0.0 mm
05:03 11.2 °C 11.0 °C 1018.2 hPa Calm     98 % 0.0 mm
05:08 11.3 °C 11.0 °C 1018.2 hPa Calm     98 % 0.0 mm
05:14 11.2 °C 11.0 °C 1018.2 hPa Calm     98 % 0.0 mm
05:19 11.0 °C 11.0 °C 1018.2 hPa Calm     98 % 0.0 mm
05:20 11.0 °C 11.0 °C 1018.2 hPa Calm     98 % 0.0 mm
05:23 11.0 °C 11.0 °C 1018.2 hPa Calm     98 % 0.0 mm
05:25 11.0 °C 11.0 °C 1018.2 hPa Calm     98 % 0.0 mm
05:27 11.0 °C 11.0 °C 1018.2 hPa Calm     98 % 0.0 mm
05:32 10.9 °C 11.0 °C 1018.2 hPa Calm     98 % 0.0 mm
05:34 10.9 °C 11.0 °C 1018.2 hPa Calm     98 % 0.0 mm
05:39 11.0 °C 11.0 °C 1018.2 hPa Calm     98 % 0.0 mm
05:44 11.0 °C 11.0 °C 1018.2 hPa Calm     98 % 0.0 mm
05:49 10.9 °C 11.0 °C 1018.2 hPa Calm     98 % 0.0 mm
05:54 10.8 °C 11.0 °C 1018.2 hPa Calm     98 % 0.0 mm
06:00 11.1 °C 11.0 °C 1018.2 hPa Calm     98 % 0.0 mm
06:05 11.1 °C 11.0 °C 1018.2 hPa Calm     98 % 0.0 mm
06:10 11.1 °C 11.0 °C 1018.2 hPa Calm     98 % 0.0 mm
06:15 10.9 °C 11.0 °C 1018.2 hPa Calm     98 % 0.0 mm
06:20 11.1 °C 11.0 °C 1018.2 hPa Calm     98 % 0.0 mm
06:25 11.3 °C 11.0 °C 1018.2 hPa Calm     98 % 0.0 mm
06:30 11.4 °C 11.0 °C 1018.2 hPa Calm     98 % 0.0 mm
06:35 11.5 °C 12.0 °C 1018.2 hPa Calm   2.1 km/h 98 % 0.0 mm
06:40 11.5 °C 12.0 °C 1018.8 hPa Calm   4.7 km/h 98 % 0.0 mm
06:45 11.2 °C 11.0 °C 1018.8 hPa Calm   4.7 km/h 98 % 0.0 mm
06:50 11.0 °C 11.0 °C 1018.8 hPa Calm   2.6 km/h 98 % 0.0 mm
06:55 11.0 °C 11.0 °C 1018.2 hPa West 4.0 km/h 4.0 km/h 98 % 0.0 mm
07:00 11.1 °C 11.0 °C 1018.2 hPa WSW 4.7 km/h 6.1 km/h 98 % 0.0 mm
07:05 11.2 °C 11.0 °C 1018.2 hPa Calm   6.1 km/h 98 % 0.0 mm
07:10 11.3 °C 11.0 °C 1018.2 hPa Calm   5.5 km/h 98 % 0.0 mm
07:15 11.4 °C 11.0 °C 1018.2 hPa Calm     98 % 0.0 mm
07:20 11.5 °C 12.0 °C 1018.2 hPa Calm     98 % 0.0 mm
07:25 11.6 °C 12.0 °C 1018.8 hPa Calm     98 % 0.0 mm
07:30 11.7 °C 12.0 °C 1018.8 hPa Calm   2.6 km/h 98 % 0.0 mm
07:35 11.8 °C 12.0 °C 1018.8 hPa Calm   2.6 km/h 98 % 0.0 mm
07:40 12.1 °C 12.0 °C 1018.8 hPa Calm   2.6 km/h 98 % 0.0 mm
07:45 12.2 °C 12.0 °C 1018.8 hPa Calm   3.5 km/h 98 % 0.0 mm
07:50 12.4 °C 13.0 °C 1018.8 hPa Calm   3.5 km/h 98 % 0.0 mm
07:55 12.5 °C 13.0 °C 1018.8 hPa Calm     98 % 0.0 mm
08:00 12.7 °C 13.0 °C 1018.8 hPa Calm     98 % 0.0 mm
08:05 13.0 °C 13.0 °C 1018.8 hPa Calm     98 % 0.0 mm
08:10 13.1 °C 13.0 °C 1018.8 hPa Calm     98 % 0.0 mm
08:15 13.4 °C 13.0 °C 1018.8 hPa Calm     98 % 0.0 mm
08:20 13.6 °C 14.0 °C 1018.8 hPa Calm     98 % 0.0 mm
08:25 13.8 °C 14.0 °C 1018.8 hPa Calm     98 % 0.0 mm
08:30 14.1 °C 14.0 °C 1018.8 hPa Calm     98 % 0.0 mm
08:35 14.3 °C 14.0 °C 1018.8 hPa Calm     98 % 0.0 mm
08:40 14.6 °C 15.0 °C 1018.8 hPa Calm   5.5 km/h 98 % 0.0 mm
08:45 14.9 °C 15.0 °C 1018.8 hPa Calm   6.9 km/h 98 % 0.0 mm
08:50 15.2 °C 15.0 °C 1018.8 hPa West 5.0 km/h 6.9 km/h 98 % 0.0 mm
08:55 15.4 °C 15.0 °C 1018.8 hPa Calm   5.8 km/h 98 % 0.0 mm
09:00 15.8 °C 16.0 °C 1018.8 hPa Calm   5.8 km/h 98 % 0.0 mm
09:05 16.1 °C 16.0 °C 1018.8 hPa Calm   5.5 km/h 98 % 0.0 mm
09:10 16.4 °C 16.0 °C 1018.8 hPa Calm   5.5 km/h 98 % 0.0 mm
09:15 17.1 °C 17.0 °C 1018.8 hPa Calm   2.1 km/h 97 % 0.0 mm
09:20 17.4 °C 17.0 °C 1018.8 hPa Calm     97 % 0.0 mm
09:25 17.9 °C 18.0 °C 1018.8 hPa Calm     97 % 0.0 mm
09:31 18.5 °C 18.0 °C 1018.8 hPa Calm     96 % 0.0 mm
09:36 18.9 °C 19.0 °C 1018.8 hPa Calm     96 % 0.0 mm
09:41 19.4 °C 19.0 °C 1018.8 hPa Calm   1.8 km/h 96 % 0.0 mm
09:46 19.9 °C 19.0 °C 1018.8 hPa Calm   4.0 km/h 95 % 0.0 mm
09:51 20.1 °C 19.0 °C 1018.8 hPa Calm   5.5 km/h 93 % 0.0 mm
09:56 20.4 °C 19.0 °C 1018.8 hPa Calm   5.5 km/h 92 % 0.0 mm
10:01 20.9 °C 20.0 °C 1018.8 hPa NNE 1.4 km/h 8.7 km/h 91 % 0.0 mm
10:06 21.1 °C 19.0 °C 1018.8 hPa Calm   8.7 km/h 90 % 0.0 mm
10:11 20.4 °C 19.0 °C 1018.8 hPa NE 5.8 km/h 8.7 km/h 89 % 0.0 mm
10:16 20.8 °C 19.0 °C 1018.8 hPa North 4.3 km/h 5.8 km/h 89 % 0.0 mm
10:21 20.8 °C 19.0 °C 1018.8 hPa NNW 4.0 km/h 7.6 km/h 88 % 0.0 mm
10:26 21.3 °C 19.0 °C 1019.9 hPa Calm   7.6 km/h 86 % 0.0 mm
10:31 21.7 °C 19.0 °C 1019.9 hPa Calm   5.8 km/h 84 % 0.0 mm
10:36 21.8 °C 18.0 °C 1019.9 hPa ENE 6.9 km/h 11.6 km/h 81 % 0.0 mm
10:41 22.2 °C 19.0 °C 1019.9 hPa NE 4.3 km/h 11.6 km/h 80 % 0.0 mm
10:46 22.5 °C 19.0 °C 1019.9 hPa NE 6.1 km/h 10.1 km/h 79 % 0.0 mm
10:51 22.6 °C 18.0 °C 1019.9 hPa NE 6.4 km/h 10.1 km/h 75 % 0.0 mm
10:56 22.8 °C 18.0 °C 1019.9 hPa NNW 4.7 km/h 10.1 km/h 74 % 0.0 mm
11:01 22.2 °C 17.0 °C 1019.9 hPa Calm   6.1 km/h 72 % 0.0 mm
11:06 21.8 °C 17.0 °C 1019.9 hPa Calm   6.1 km/h 72 % 0.0 mm
11:11 21.7 °C 17.0 °C 1020.9 hPa Calm   5.8 km/h 73 % 0.0 mm
11:16 21.5 °C 17.0 °C 1020.9 hPa Calm     72 % 0.0 mm
11:21 21.2 °C 16.0 °C 1020.9 hPa Calm   6.4 km/h 71 % 0.0 mm
11:26 21.0 °C 16.0 °C 1019.9 hPa NW 4.3 km/h 6.4 km/h 72 % 0.0 mm
11:32 20.7 °C 16.0 °C 1019.9 hPa NNE 4.7 km/h 6.4 km/h 73 % 0.0 mm
11:37 20.7 °C 16.0 °C 1019.9 hPa NNW 6.4 km/h 6.4 km/h 73 % 0.0 mm
11:42 20.7 °C 16.0 °C 1020.9 hPa Calm   9.3 km/h 73 % 0.0 mm
11:47 21.2 °C 17.0 °C 1020.9 hPa North 5.8 km/h 6.4 km/h 74 % 0.0 mm
11:52 21.3 °C 16.0 °C 1020.9 hPa North 1.8 km/h 9.0 km/h 73 % 0.0 mm
11:57 21.2 °C 16.0 °C 1020.9 hPa NNW 5.5 km/h 9.0 km/h 73 % 0.0 mm
12:02 21.0 °C 16.0 °C 1020.9 hPa NNW 5.0 km/h 5.8 km/h 71 % 0.0 mm
12:07 20.9 °C 16.0 °C 1020.9 hPa Calm   5.0 km/h 72 % 0.0 mm
12:12 20.6 °C 16.0 °C 1020.9 hPa Calm   7.9 km/h 72 % 0.0 mm
12:17 20.6 °C 16.0 °C 1020.9 hPa North 6.9 km/h 7.9 km/h 73 % 0.0 mm
12:22 20.4 °C 16.0 °C 1020.9 hPa Calm   10.1 km/h 74 % 0.0 mm
12:27 20.3 °C 16.0 °C 1020.9 hPa WNW 4.3 km/h 10.5 km/h 75 % 0.0 mm
12:32 20.3 °C 16.0 °C 1020.9 hPa NNW 9.7 km/h 10.5 km/h 75 % 0.0 mm
12:37 20.2 °C 16.0 °C 1020.9 hPa NNE 4.7 km/h 9.7 km/h 75 % 0.0 mm
12:42 20.1 °C 16.0 °C 1020.9 hPa NNW 4.3 km/h 12.2 km/h 76 % 0.0 mm
12:47 20.1 °C 15.0 °C 1020.9 hPa WNW 5.8 km/h 12.2 km/h 74 % 0.0 mm
12:52 20.1 °C 15.0 °C 1020.9 hPa NNW 7.6 km/h 9.0 km/h 74 % 0.0 mm
12:57 20.1 °C 15.0 °C 1020.9 hPa North 6.1 km/h 9.7 km/h 74 % 0.0 mm
13:02 20.2 °C 16.0 °C 1020.9 hPa Calm   9.7 km/h 74 % 0.0 mm
13:07 20.5 °C 16.0 °C 1020.9 hPa NNE 5.5 km/h 9.7 km/h 74 % 0.0 mm
13:12 20.8 °C 16.0 °C 1020.9 hPa Calm   6.4 km/h 74 % 0.0 mm
13:18 21.3 °C 16.0 °C 1020.9 hPa Calm   9.7 km/h 73 % 0.0 mm
13:23 21.4 °C 16.0 °C 1021.9 hPa North 4.3 km/h 9.7 km/h 71 % 0.0 mm
13:28 21.6 °C 16.0 °C 1021.9 hPa North 9.7 km/h 10.5 km/h 71 % 0.0 mm
13:33 21.5 °C 16.0 °C 1021.9 hPa Calm   11.9 km/h 70 % 0.0 mm
13:38 21.4 °C 16.0 °C 1020.9 hPa NNE 8.7 km/h 11.9 km/h 70 % 0.0 mm
13:43 21.5 °C 16.0 °C 1020.9 hPa North 5.8 km/h 9.7 km/h 69 % 0.0 mm
13:48 21.4 °C 15.0 °C 1020.9 hPa East 9.0 km/h 13.0 km/h 68 % 0.0 mm
13:53 22.4 °C 16.0 °C 1020.9 hPa NNW 9.7 km/h 13.0 km/h 67 % 0.0 mm
13:58 23.5 °C 17.0 °C 1020.9 hPa ESE 5.0 km/h 10.5 km/h 66 % 0.0 mm
14:03 23.2 °C 17.0 °C 1020.9 hPa NW 14.0 km/h 14.0 km/h 65 % 0.0 mm
14:08 23.1 °C 16.0 °C 1019.9 hPa NNW 8.7 km/h 14.0 km/h 65 % 0.0 mm
14:13 23.4 °C 17.0 °C 1019.9 hPa NNW 12.2 km/h 14.0 km/h 65 % 0.0 mm
14:18 23.2 °C 16.0 °C 1019.9 hPa NNW 6.9 km/h 14.0 km/h 62 % 0.0 mm
14:23 24.1 °C 16.0 °C 1019.9 hPa South 1.4 km/h 14.0 km/h 62 % 0.0 mm
14:28 23.9 °C 16.0 °C 1020.9 hPa ENE 6.9 km/h 12.6 km/h 60 % 0.0 mm
14:33 24.0 °C 15.0 °C 1020.9 hPa NW 3.2 km/h 12.6 km/h 58 % 0.0 mm
14:38 24.1 °C 15.0 °C 1020.9 hPa NW 7.9 km/h 12.2 km/h 56 % 0.0 mm
14:43 24.4 °C 15.0 °C 1020.9 hPa North 5.8 km/h 10.5 km/h 55 % 0.0 mm
14:48 24.8 °C 15.0 °C 1020.9 hPa WNW 10.1 km/h 10.5 km/h 55 % 0.0 mm
14:53 25.1 °C 15.0 °C 1020.9 hPa NE 6.1 km/h 10.1 km/h 52 % 0.0 mm
14:58 24.4 °C 14.0 °C 1020.9 hPa ENE 4.7 km/h 10.1 km/h 52 % 0.0 mm
15:03 23.9 °C 14.0 °C 1020.9 hPa Calm   10.1 km/h 54 % 0.0 mm
15:08 23.5 °C 14.0 °C 1020.9 hPa NNE 6.9 km/h 9.0 km/h 56 % 0.0 mm
15:13 23.3 °C 14.0 °C 1020.9 hPa North 6.4 km/h 9.0 km/h 57 % 0.0 mm
15:18 24.6 °C 15.0 °C 1020.9 hPa North 6.9 km/h 9.3 km/h 55 % 0.0 mm
15:23 25.2 °C 16.0 °C 1020.9 hPa NW 8.7 km/h 14.0 km/h 55 % 0.0 mm
15:29 24.3 °C 15.0 °C 1020.9 hPa West 6.4 km/h 14.0 km/h 55 % 0.0 mm
15:34 24.1 °C 14.0 °C 1020.9 hPa ENE 5.0 km/h 11.6 km/h 55 % 0.0 mm
15:39 24.6 °C 15.0 °C 1020.9 hPa Calm   9.7 km/h 54 % 0.0 mm
15:44 24.5 °C 15.0 °C 1020.9 hPa North 5.0 km/h 12.2 km/h 53 % 0.0 mm
15:49 23.4 °C 13.0 °C 1020.9 hPa WNW 4.7 km/h 14.8 km/h 53 % 0.0 mm
15:54 23.6 °C 15.0 °C 1020.9 hPa NNE 7.6 km/h 14.8 km/h 57 % 0.0 mm
15:59 23.0 °C 14.0 °C 1020.9 hPa North 5.0 km/h 14.0 km/h 58 % 0.0 mm
16:04 22.3 °C 14.0 °C 1020.9 hPa East 4.3 km/h 12.2 km/h 58 % 0.0 mm
16:09 21.8 °C 14.0 °C 1020.9 hPa NNE 9.0 km/h 10.5 km/h 60 % 0.0 mm
16:14 21.6 °C 14.0 °C 1020.9 hPa NE 7.6 km/h 12.2 km/h 60 % 0.0 mm
16:19 21.3 °C 14.0 °C 1020.9 hPa NNW 1.8 km/h 13.7 km/h 62 % 0.0 mm
16:24 21.2 °C 14.0 °C 1020.9 hPa North 5.5 km/h 13.7 km/h 62 % 0.0 mm
16:29 21.1 °C 13.0 °C 1020.9 hPa NNE 2.6 km/h 10.5 km/h 62 % 0.0 mm
16:31 21.0 °C 14.0 °C 1020.9 hPa NNW 7.9 km/h 10.5 km/h 63 % 0.0 mm
16:36 21.0 °C 14.0 °C 1020.9 hPa North 6.9 km/h 9.7 km/h 64 % 0.0 mm
16:41 20.9 °C 14.0 °C 1020.9 hPa Calm   13.0 km/h 64 % 0.0 mm
16:47 21.0 °C 14.0 °C 1020.9 hPa North 9.0 km/h 13.0 km/h 64 % 0.0 mm
16:52 21.1 °C 14.0 °C 1020.9 hPa NNW 6.4 km/h 10.5 km/h 64 % 0.0 mm
16:57 21.3 °C 14.0 °C 1020.9 hPa North 1.4 km/h 10.5 km/h 64 % 0.0 mm
17:02 21.3 °C 14.0 °C 1020.9 hPa North 4.0 km/h 10.5 km/h 63 % 0.0 mm
17:07 22.0 °C 15.0 °C 1020.9 hPa North 4.7 km/h 10.5 km/h 63 % 0.0 mm
17:12 23.1 °C 15.0 °C 1020.9 hPa North 6.9 km/h 10.5 km/h 61 % 0.0 mm
17:17 23.2 °C 15.0 °C 1020.9 hPa North 5.0 km/h 9.7 km/h 60 % 0.0 mm
17:22 22.7 °C 14.0 °C 1020.9 hPa North 9.7 km/h 14.0 km/h 59 % 0.0 mm
17:27 22.3 °C 14.0 °C 1020.9 hPa NNE 13.0 km/h 14.0 km/h 59 % 0.0 mm
17:32 22.5 °C 14.0 °C 1020.9 hPa NE 10.1 km/h 13.0 km/h 59 % 0.0 mm
17:37 22.9 °C 15.0 °C 1020.9 hPa North 6.4 km/h 13.0 km/h 60 % 0.0 mm
17:42 23.2 °C 15.0 °C 1020.9 hPa ENE 6.1 km/h 12.6 km/h 59 % 0.0 mm
17:47 22.8 °C 15.0 °C 1020.9 hPa NNE 9.0 km/h 13.7 km/h 60 % 0.0 mm
17:52 22.0 °C 14.0 °C 1020.9 hPa ENE 5.5 km/h 14.0 km/h 60 % 0.0 mm
17:57 21.4 °C 13.0 °C 1020.9 hPa North 9.7 km/h 14.0 km/h 61 % 0.0 mm
18:02 21.3 °C 14.0 °C 1020.9 hPa NW 10.1 km/h 13.7 km/h 62 % 0.0 mm
18:07 21.2 °C 14.0 °C 1020.9 hPa North 6.1 km/h 11.9 km/h 63 % 0.0 mm
18:12 21.1 °C 14.0 °C 1021.9 hPa Calm   14.0 km/h 63 % 0.0 mm
18:17 21.8 °C 15.0 °C 1021.9 hPa NNE 7.9 km/h 14.0 km/h 64 % 0.0 mm
18:22 21.9 °C 15.0 °C 1021.9 hPa NNW 9.7 km/h 11.9 km/h 63 % 0.0 mm
18:27 22.1 °C 14.0 °C 1020.9 hPa NNW 8.7 km/h 12.6 km/h 61 % 0.0 mm
18:28 22.0 °C 14.0 °C 1020.9 hPa North 5.0 km/h 12.6 km/h 61 % 0.0 mm
18:33 22.2 °C 14.0 °C 1020.9 hPa North 5.5 km/h 12.6 km/h 61 % 0.0 mm
18:38 22.2 °C 14.0 °C 1020.9 hPa North 8.7 km/h 12.2 km/h 60 % 0.0 mm
18:43 22.3 °C 14.0 °C 1020.9 hPa North 8.7 km/h 12.2 km/h 60 % 0.0 mm
18:48 22.3 °C 14.0 °C 1020.9 hPa North 13.7 km/h 13.7 km/h 60 % 0.0 mm
18:53 22.0 °C 14.0 °C 1020.9 hPa North 6.1 km/h 13.7 km/h 60 % 0.0 mm
18:58 21.3 °C 13.0 °C 1020.9 hPa North 10.1 km/h 13.7 km/h 60 % 0.0 mm
19:03 20.8 °C 13.0 °C 1020.9 hPa North 1.4 km/h 13.7 km/h 61 % 0.0 mm
19:08 20.5 °C 13.0 °C 1020.9 hPa NNE 7.9 km/h 13.7 km/h 61 % 0.0 mm
19:13 20.3 °C 13.0 °C 1020.9 hPa North 4.0 km/h 11.6 km/h 61 % 0.0 mm
19:18 20.1 °C 12.0 °C 1020.9 hPa NNW 6.9 km/h 12.2 km/h 61 % 0.0 mm
19:23 19.9 °C 13.0 °C 1020.9 hPa North 10.5 km/h 13.0 km/h 62 % 0.0 mm
19:28 19.7 °C 12.0 °C 1020.9 hPa NNW 6.4 km/h 13.0 km/h 62 % 0.0 mm
19:33 19.5 °C 12.0 °C 1020.9 hPa NNW 6.1 km/h 9.7 km/h 62 % 0.0 mm
19:38 19.4 °C 12.0 °C 1020.9 hPa North 2.6 km/h 9.3 km/h 62 % 0.0 mm
19:43 19.3 °C 12.0 °C 1020.9 hPa North 5.8 km/h 10.1 km/h 61 % 0.0 mm
19:48 19.3 °C 12.0 °C 1020.9 hPa NNE 9.3 km/h 12.6 km/h 61 % 0.0 mm
19:53 19.2 °C 12.0 °C 1020.9 hPa Calm   13.0 km/h 61 % 0.0 mm
19:58 19.1 °C 11.0 °C 1020.9 hPa North 6.9 km/h 13.0 km/h 60 % 0.0 mm
20:03 19.0 °C 12.0 °C 1020.9 hPa NNE 6.9 km/h 12.2 km/h 62 % 0.0 mm
20:08 18.8 °C 11.0 °C 1020.9 hPa North 9.3 km/h 10.1 km/h 62 % 0.0 mm
20:13 18.7 °C 11.0 °C 1020.9 hPa NNE 6.1 km/h 11.9 km/h 62 % 0.0 mm
20:18 18.5 °C 12.0 °C 1020.9 hPa North 5.5 km/h 11.9 km/h 63 % 0.0 mm
20:23 18.4 °C 12.0 °C 1020.9 hPa NE 6.1 km/h 9.3 km/h 64 % 0.0 mm
20:28 18.1 °C 11.0 °C 1019.9 hPa North 4.3 km/h 9.3 km/h 64 % 0.0 mm
20:33 18.0 °C 11.0 °C 1019.9 hPa NNE 7.6 km/h 8.7 km/h 64 % 0.0 mm
20:39 17.7 °C 11.0 °C 1019.9 hPa NNE 4.3 km/h 10.1 km/h 65 % 0.0 mm
20:43 17.6 °C 11.0 °C 1020.9 hPa NNW 6.1 km/h 10.1 km/h 65 % 0.0 mm
20:49 17.4 °C 11.0 °C 1020.9 hPa NNE 6.1 km/h 8.7 km/h 65 % 0.0 mm
20:54 17.2 °C 11.0 °C 1020.9 hPa North 2.1 km/h 6.9 km/h 67 % 0.0 mm
20:59 17.0 °C 11.0 °C 1019.9 hPa North 2.1 km/h 6.9 km/h 68 % 0.0 mm
21:04 16.8 °C 11.0 °C 1019.9 hPa Calm   6.9 km/h 68 % 0.0 mm
21:09 16.7 °C 11.0 °C 1019.9 hPa North 5.5 km/h 6.9 km/h 69 % 0.0 mm
21:14 16.7 °C 11.0 °C 1020.9 hPa Calm   6.9 km/h 69 % 0.0 mm
21:19 16.7 °C 11.0 °C 1020.9 hPa North 5.8 km/h 9.0 km/h 69 % 0.0 mm
21:24 16.6 °C 11.0 °C 1020.9 hPa Calm   9.0 km/h 69 % 0.0 mm
21:29 16.5 °C 11.0 °C 1020.9 hPa NNE 3.5 km/h 6.1 km/h 70 % 0.0 mm
21:34 16.4 °C 11.0 °C 1020.9 hPa NE 5.5 km/h 6.9 km/h 70 % 0.0 mm
21:39 16.4 °C 11.0 °C 1020.9 hPa Calm   6.9 km/h 70 % 0.0 mm
21:44 16.3 °C 11.0 °C 1020.9 hPa Calm   6.4 km/h 71 % 0.0 mm
21:49 16.2 °C 12.0 °C 1020.9 hPa Calm   3.2 km/h 72 % 0.0 mm
21:54 16.1 °C 11.0 °C 1020.9 hPa Calm   3.2 km/h 71 % 0.0 mm
21:59 15.9 °C 11.0 °C 1020.9 hPa Calm     72 % 0.0 mm
22:04 15.8 °C 11.0 °C 1020.9 hPa Calm   5.0 km/h 72 % 0.0 mm
22:09 15.8 °C 11.0 °C 1020.9 hPa Calm   5.0 km/h 72 % 0.0 mm
22:14 15.7 °C 11.0 °C 1020.9 hPa Calm   1.8 km/h 72 % 0.0 mm
22:19 15.6 °C 11.0 °C 1020.9 hPa Calm   1.8 km/h 73 % 0.0 mm
22:24 15.5 °C 11.0 °C 1020.9 hPa Calm   4.0 km/h 73 % 0.0 mm
22:29 15.4 °C 11.0 °C 1020.9 hPa Calm   4.0 km/h 73 % 0.0 mm
22:34 15.3 °C 11.0 °C 1020.9 hPa Calm     74 % 0.0 mm
22:39 15.2 °C 11.0 °C 1020.9 hPa Calm     74 % 0.0 mm
22:44 15.1 °C 11.0 °C 1020.9 hPa Calm     74 % 0.0 mm
22:49 15.0 °C 11.0 °C 1020.9 hPa Calm     76 % 0.0 mm
22:55 14.8 °C 11.0 °C 1020.9 hPa Calm     77 % 0.0 mm
23:00 14.7 °C 11.0 °C 1020.9 hPa Calm     77 % 0.0 mm
23:05 14.7 °C 11.0 °C 1020.9 hPa Calm   2.6 km/h 77 % 0.0 mm
23:10 14.6 °C 11.0 °C 1020.9 hPa Calm   2.6 km/h 77 % 0.0 mm
23:15 14.5 °C 11.0 °C 1020.9 hPa Calm   1.4 km/h 78 % 0.0 mm
23:20 14.4 °C 11.0 °C 1020.9 hPa Calm   3.2 km/h 79 % 0.0 mm
23:25 14.4 °C 11.0 °C 1020.9 hPa Calm   3.2 km/h 80 % 0.0 mm
23:30 14.3 °C 11.0 °C 1020.9 hPa Calm     80 % 0.0 mm
23:35 14.3 °C 11.0 °C 1020.9 hPa Calm     80 % 0.0 mm
23:40 14.3 °C 11.0 °C 1020.9 hPa Calm     81 % 0.0 mm
23:45 14.4 °C 11.0 °C 1020.9 hPa Calm     81 % 0.0 mm
23:50 14.4 °C 11.0 °C 1020.9 hPa Calm     81 % 0.0 mm
23:55 14.4 °C 11.0 °C 1020.9 hPa Calm     81 % 0.0 mm
Le Gheer Warneton
Courtoisie de Weather Underground - 2.25 mb

Mise a jour : 17/12/2017 22:32:12
Généré par Cumulus 1.9.4 (1099)